Time;durP1;ratioP1;P1;durP2;ratioP2;P2;SDS_P1;SDS_P2;PMS_P1;PMS_P2;Temp;Humidity;BMP_temperature;BMP_pressure;BME280_temperature;BME280_humidity;BME280_pressure;Samples;Min_cycle;Max_cycle;Signal;HPM_P1;HPM_P2
2021/11/11 00:03:57;;;;;;;164.40;129.18;;;21.70;50.10;;;;;;4580822;57;21624;-35
2021/11/11 00:08:58;;;;;;;167.95;126.15;;;21.70;50.10;;;;;;4560026;57;21526;-26
2021/11/11 00:13:59;;;;;;;164.25;128.12;;;21.70;50.10;;;;;;4559414;57;21095;-35
2021/11/11 00:19:00;;;;;;;159.02;124.03;;;21.70;50.00;;;;;;4568958;57;21043;-36
2021/11/11 00:24:01;;;;;;;163.45;125.53;;;21.70;50.00;;;;;;4558790;57;21096;-26
2021/11/11 00:29:03;;;;;;;163.43;127.18;;;21.70;49.90;;;;;;4579400;57;21505;-34
2021/11/11 00:34:04;;;;;;;165.32;126.78;;;21.70;49.90;;;;;;4557667;57;21115;-36
2021/11/11 00:39:05;;;;;;;155.98;120.05;;;21.70;49.90;;;;;;4572209;57;21502;-30
2021/11/11 00:44:06;;;;;;;163.68;125.60;;;21.70;49.90;;;;;;4557437;61;21080;-32
2021/11/11 00:49:07;;;;;;;157.15;122.97;;;21.70;49.90;;;;;;4558885;57;21079;-35
2021/11/11 00:54:08;;;;;;;158.18;122.57;;;21.70;49.80;;;;;;4558403;61;21513;-32
2021/11/11 00:59:10;;;;;;;160.70;122.18;;;21.70;49.80;;;;;;4567442;57;21036;-36
2021/11/11 01:04:11;;;;;;;155.27;120.68;;;21.70;49.80;;;;;;4565395;57;21506;-29
2021/11/11 01:09:12;;;;;;;159.30;121.18;;;21.70;49.70;;;;;;4558234;58;21123;-33
2021/11/11 01:14:13;;;;;;;162.05;120.87;;;21.70;49.70;;;;;;4557886;57;21063;-34
2021/11/11 01:19:14;;;;;;;155.30;120.75;;;21.70;49.70;;;;;;4626717;57;21586;-33
2021/11/11 01:24:16;;;;;;;152.50;117.72;;;21.70;49.70;;;;;;4571368;57;21079;-33
2021/11/11 01:29:17;;;;;;;157.18;121.90;;;21.70;49.60;;;;;;4559425;57;21075;-32
2021/11/11 01:34:18;;;;;;;154.30;120.55;;;21.70;49.60;;;;;;4568162;57;21665;-36
2021/11/11 01:39:19;;;;;;;156.43;118.53;;;21.70;49.50;;;;;;4581743;57;21556;-34
2021/11/11 01:44:20;;;;;;;150.15;115.72;;;21.70;49.50;;;;;;4557727;61;21095;-36
2021/11/11 01:49:22;;;;;;;152.90;115.15;;;21.70;49.50;;;;;;4563201;57;21106;-28
2021/11/11 01:54:23;;;;;;;145.27;112.75;;;21.70;49.50;;;;;;4559517;57;21625;-30
2021/11/11 01:59:27;;;;;;;150.98;113.93;;;21.70;49.50;;;;;;4592634;57;21071;-29
2021/11/11 02:04:28;;;;;;;153.65;115.72;;;21.70;49.50;;;;;;4557342;57;21076;-24
2021/11/11 02:09:28;;;;;;;145.82;112.85;;;21.70;49.50;;;;;;4578155;57;21650;-33
2021/11/11 02:14:29;;;;;;;146.62;113.12;;;21.70;49.40;;;;;;4570900;57;21075;-29
2021/11/11 02:19:30;;;;;;;142.85;110.53;;;21.70;49.40;;;;;;4563690;57;21121;-28
2021/11/11 02:24:32;;;;;;;148.05;113.82;;;21.70;49.30;;;;;;4577910;57;21561;-32
2021/11/11 02:29:33;;;;;;;146.75;111.57;;;21.70;49.30;;;;;;4603083;57;21160;-30
2021/11/11 02:34:34;;;;;;;137.23;105.28;;;21.60;49.30;;;;;;4557754;57;21055;-27
2021/11/11 02:39:40;;;;;;;144.27;111.28;;;21.70;49.30;;;;;;4578163;57;21632;-27
2021/11/11 02:44:42;;;;;;;142.50;110.28;;;21.70;49.30;;;;;;4591693;57;21051;-37
2021/11/11 02:49:43;;;;;;;137.45;107.72;;;21.60;49.20;;;;;;4587061;57;21351;-35
2021/11/11 02:54:45;;;;;;;139.90;108.63;;;21.70;49.20;;;;;;4640491;57;21517;-34
2021/11/11 02:59:45;;;;;;;140.90;107.37;;;21.70;49.20;;;;;;4584468;57;21043;-26
2021/11/11 03:04:46;;;;;;;139.82;108.10;;;21.60;49.10;;;;;;4596472;57;21493;-34
2021/11/11 03:09:48;;;;;;;137.75;105.68;;;21.60;49.10;;;;;;4569064;57;21104;-33
2021/11/11 03:14:52;;;;;;;137.82;105.95;;;21.70;49.10;;;;;;4557547;57;21683;-33
2021/11/11 03:19:55;;;;;;;137.93;106.68;;;21.60;49.10;;;;;;4566430;57;21099;-30
2021/11/11 03:24:59;;;;;;;134.12;104.20;;;21.60;49.10;;;;;;4560920;57;21114;-35
2021/11/11 03:30:00;;;;;;;133.20;104.28;;;21.60;49.10;;;;;;4561721;57;21087;-35
2021/11/11 03:35:00;;;;;;;131.57;100.78;;;21.60;49.00;;;;;;4565444;57;21027;-32
2021/11/11 03:40:05;;;;;;;127.95;100.70;;;21.60;49.10;;;;;;4605289;57;21043;-34
2021/11/11 03:45:08;;;;;;;131.73;102.47;;;21.60;49.00;;;;;;4601561;57;21601;-31
2021/11/11 03:50:11;;;;;;;127.57;98.68;;;21.60;49.00;;;;;;4574137;57;21466;-34
2021/11/11 03:55:13;;;;;;;124.25;97.30;;;21.60;49.00;;;;;;4577434;57;21134;-33
2021/11/11 04:00:16;;;;;;;132.30;103.62;;;21.60;48.90;;;;;;4579141;57;21102;-30
2021/11/11 04:05:17;;;;;;;126.12;98.00;;;21.60;49.50;;;;;;4596593;57;21577;-27
2021/11/11 04:10:18;;;;;;;127.35;97.47;;;21.60;48.90;;;;;;4565689;57;21035;-35
2021/11/11 04:15:19;;;;;;;118.80;93.18;;;21.60;48.90;;;;;;4566206;57;21128;-33
2021/11/11 04:20:20;;;;;;;121.20;95.53;;;21.60;48.90;;;;;;4558661;57;21130;-35
2021/11/11 04:25:28;;;;;;;119.15;95.90;;;21.60;48.90;;;;;;4568164;57;21597;-36
2021/11/11 04:30:33;;;;;;;119.37;93.62;;;21.60;48.90;;;;;;4600312;57;21517;-35
2021/11/11 04:35:33;;;;;;;117.80;93.12;;;21.60;48.90;;;;;;4596812;57;21568;-34
2021/11/11 04:41:21;;;;;;;122.22;95.57;;;21.60;48.90;;;;;;4571541;57;21091;-36
2021/11/11 05:03:33;;;;;;;116.80;93.75;;;21.60;48.80;;;;;;4602839;57;21175;-23
2021/11/11 05:08:33;;;;;;;113.00;89.45;;;21.60;49.00;;;;;;4557764;61;21649;-31
2021/11/11 05:13:36;;;;;;;114.40;90.97;;;21.60;49.00;;;;;;4597285;57;21119;-33
2021/11/11 05:18:37;;;;;;;107.85;87.43;;;21.60;48.90;;;;;;4571397;56;21139;-32
2021/11/11 05:23:38;;;;;;;116.22;90.40;;;21.60;49.00;;;;;;4570785;57;21521;-34
2021/11/11 05:28:39;;;;;;;110.53;87.37;;;21.60;49.00;;;;;;4566390;57;21530;-28
2021/11/11 05:33:40;;;;;;;103.40;83.60;;;21.60;49.00;;;;;;4579753;57;21039;-30
2021/11/11 05:38:41;;;;;;;108.18;87.57;;;21.60;49.10;;;;;;4569540;57;20999;-31
2021/11/11 05:43:42;;;;;;;107.32;86.90;;;21.60;49.10;;;;;;4572710;57;21051;-32
2021/11/11 05:48:43;;;;;;;110.53;87.22;;;21.60;49.20;;;;;;4558035;61;21506;-36
2021/11/11 05:53:43;;;;;;;105.03;83.07;;;21.60;49.30;;;;;;4572482;57;21119;-35
2021/11/11 05:58:44;;;;;;;109.07;84.30;;;21.60;49.30;;;;;;4571499;57;21743;-32
2021/11/11 06:03:46;;;;;;;105.18;84.25;;;21.60;49.30;;;;;;4595834;57;21051;-30
2021/11/11 06:08:47;;;;;;;99.62;80.43;;;21.60;49.30;;;;;;4557501;61;21185;-31
2021/11/11 06:13:48;;;;;;;101.22;80.45;;;21.60;49.40;;;;;;4573737;57;21605;-33
2021/11/11 06:18:50;;;;;;;104.28;83.05;;;21.60;49.40;;;;;;4576527;57;21115;-26
2021/11/11 06:23:53;;;;;;;101.68;81.05;;;21.60;49.40;;;;;;4557543;61;21051;-34
2021/11/11 06:28:53;;;;;;;103.18;81.80;;;21.60;49.40;;;;;;4578490;57;21544;-30
2021/11/11 06:33:57;;;;;;;101.97;79.57;;;21.60;49.40;;;;;;4567094;57;21039;-26
2021/11/11 06:38:58;;;;;;;102.85;82.20;;;21.60;49.40;;;;;;4583156;57;21099;-33
2021/11/11 06:43:59;;;;;;;104.63;81.50;;;21.60;49.40;;;;;;4567427;57;21035;-26
2021/11/11 06:49:00;;;;;;;98.78;77.97;;;21.60;49.40;;;;;;4565830;57;21581;-32
2021/11/11 06:54:01;;;;;;;102.00;79.93;;;21.60;49.40;;;;;;4586260;57;21043;-33
2021/11/11 06:59:03;;;;;;;100.53;78.62;;;21.60;49.40;;;;;;4576783;57;21180;-25
2021/11/11 07:04:04;;;;;;;104.05;81.00;;;21.60;49.40;;;;;;4564705;57;21035;-28
2021/11/11 07:12:22;;;;;;;96.53;81.30;;;21.60;49.50;;;;;;4764363;54;27933;-22
2021/11/11 07:17:26;;;;;;;97.12;78.53;;;21.60;49.50;;;;;;4750457;55;21038;-30
2021/11/11 07:22:27;;;;;;;98.78;78.18;;;21.60;49.50;;;;;;4771336;55;21058;-25
2021/11/11 07:27:28;;;;;;;97.53;77.45;;;21.60;49.50;;;;;;4761720;55;21085;-34
2021/11/11 07:32:29;;;;;;;96.75;78.20;;;21.60;49.50;;;;;;4774107;55;20994;-30
2021/11/11 07:37:30;;;;;;;98.22;78.15;;;21.60;49.50;;;;;;4740137;58;21026;-29
2021/11/11 07:42:31;;;;;;;93.68;76.28;;;21.60;49.50;;;;;;4740325;55;21496;-31
2021/11/11 07:47:32;;;;;;;95.47;76.50;;;21.60;49.50;;;;;;4750821;55;21085;-32
2021/11/11 07:52:33;;;;;;;99.60;80.15;;;21.60;49.50;;;;;;4739665;55;21480;-30
2021/11/11 07:57:35;;;;;;;96.70;76.55;;;21.60;49.50;;;;;;4758828;55;21548;-31
2021/11/11 08:02:36;;;;;;;98.28;77.60;;;21.60;49.50;;;;;;4753691;55;21045;-30
2021/11/11 08:07:37;;;;;;;96.70;75.93;;;21.60;49.50;;;;;;4758948;55;21543;-30
2021/11/11 08:12:39;;;;;;;99.35;76.62;;;21.60;49.50;;;;;;4758661;55;21018;-32
2021/11/11 08:17:41;;;;;;;99.05;75.87;;;21.60;49.70;;;;;;4743762;55;22271;-29
2021/11/11 08:22:46;;;;;;;97.88;75.18;;;21.60;49.80;;;;;;4737955;58;21949;-32
2021/11/11 08:27:49;;;;;;;100.03;77.70;;;21.70;50.10;;;;;;4751417;55;21524;-30
2021/11/11 08:32:52;;;;;;;98.32;77.32;;;21.70;50.00;;;;;;4744506;55;21488;-29
2021/11/11 08:37:54;;;;;;;101.97;77.50;;;21.70;50.20;;;;;;4767648;55;21505;-30
2021/11/11 08:42:58;;;;;;;99.75;76.20;;;21.80;50.30;;;;;;4748702;55;21121;-28
2021/11/11 08:48:01;;;;;;;102.32;78.05;;;21.80;50.40;;;;;;4761931;55;21480;-24
2021/11/11 08:53:03;;;;;;;100.15;75.47;;;21.80;50.50;;;;;;4735927;59;21484;-27
2021/11/11 08:58:06;;;;;;;99.18;75.85;;;21.90;50.60;;;;;;4792009;55;21085;-25
2021/11/11 09:03:07;;;;;;;103.85;75.95;;;21.90;50.90;;;;;;4737368;59;21042;-28
2021/11/11 09:08:09;;;;;;;99.07;75.30;;;21.90;51.20;;;;;;4739950;55;21667;-31
2021/11/11 09:13:10;;;;;;;105.57;75.85;;;22.00;51.50;;;;;;4737465;59;21018;-27
2021/11/11 09:18:11;;;;;;;103.40;73.75;;;22.00;51.50;;;;;;4736740;55;21145;-30
2021/11/11 09:23:12;;;;;;;109.55;78.28;;;22.00;51.60;;;;;;4780018;55;21992;-23
2021/11/11 09:28:13;;;;;;;104.53;77.70;;;22.10;51.90;;;;;;4754616;55;21472;-25
2021/11/11 09:33:14;;;;;;;102.55;76.93;;;22.10;52.10;;;;;;4746232;55;21569;-19
2021/11/11 09:38:15;;;;;;;111.40;80.62;;;22.20;52.80;;;;;;4753573;55;21080;-28
2021/11/11 09:43:16;;;;;;;110.60;80.55;;;22.20;52.40;;;;;;4736191;59;21026;-28
2021/11/11 09:48:18;;;;;;;109.22;82.70;;;22.20;52.20;;;;;;4742063;55;21113;-28
2021/11/11 09:53:23;;;;;;;111.35;80.22;;;22.20;52.20;;;;;;4804768;55;21065;-26
2021/11/11 09:58:45;;;;;;;123.00;87.85;;;22.20;52.20;;;;;;4735812;59;21756;-33
2021/11/11 10:03:50;;;;;;;123.97;89.75;;;22.20;51.80;;;;;;4736064;59;21133;-26
2021/11/11 10:08:57;;;;;;;124.85;89.32;;;22.20;51.60;;;;;;4758814;55;22675;-33
2021/11/11 10:14:13;;;;;;;119.93;87.65;;;22.20;51.60;;;;;;4748642;55;21627;-27
2021/11/11 10:19:15;;;;;;;118.15;88.68;;;22.20;51.70;;;;;;4748788;55;21472;-31
2021/11/11 10:24:34;;;;;;;122.00;89.75;;;22.20;51.80;;;;;;4741983;55;21476;-27
2021/11/11 10:29:46;;;;;;;122.03;88.87;;;22.20;51.90;;;;;;4736980;59;21463;-30
2021/11/11 10:34:57;;;;;;;127.60;90.25;;;22.20;52.10;;;;;;4743229;55;21563;-28
2021/11/11 10:40:08;;;;;;;120.18;88.05;;;22.20;52.10;;;;;;4737818;59;21472;-24
2021/11/11 10:45:22;;;;;;;121.62;89.90;;;22.20;52.20;;;;;;4771918;55;20998;-24
2021/11/11 10:50:40;;;;;;;124.93;90.93;;;22.20;52.30;;;;;;4740968;55;21071;-26
2021/11/11 10:55:50;;;;;;;124.50;90.90;;;22.20;52.30;;;;;;4744276;55;21456;-28
2021/11/11 11:01:00;;;;;;;126.70;93.12;;;22.20;52.40;;;;;;4737975;59;21086;-28
2021/11/11 11:06:08;;;;;;;129.25;94.87;;;22.20;53.00;;;;;;4746591;55;21476;-29
2021/11/11 11:11:19;;;;;;;133.23;94.95;;;22.20;52.50;;;;;;4758556;55;21481;-25
2021/11/11 11:16:25;;;;;;;124.53;93.00;;;22.20;52.60;;;;;;4736376;59;21086;-25
2021/11/11 11:21:29;;;;;;;125.72;96.05;;;22.20;52.60;;;;;;4743599;55;21006;-32
2021/11/11 11:26:39;;;;;;;136.77;97.95;;;22.30;53.00;;;;;;4745047;55;21042;-32
2021/11/11 11:32:21;;;;;;;136.75;101.03;;;22.30;52.90;;;;;;4766544;55;21034;-34
2021/11/11 11:37:29;;;;;;;142.60;104.82;;;22.20;52.80;;;;;;4742556;55;22192;-29
2021/11/11 11:42:35;;;;;;;139.68;102.47;;;22.20;52.80;;;;;;4738337;59;21006;-31
2021/11/11 11:47:42;;;;;;;142.68;102.50;;;22.30;52.90;;;;;;4751551;55;21559;-31
2021/11/11 11:52:51;;;;;;;137.55;101.60;;;22.20;52.90;;;;;;4752203;55;21607;-29
2021/11/11 12:43:19;;;;;;;147.02;109.15;;;22.30;53.00;;;;;;4778404;55;21065;-32
2021/11/11 12:48:22;;;;;;;152.25;111.32;;;22.30;53.00;;;;;;4737860;59;21053;-34
2021/11/11 12:53:26;;;;;;;146.57;106.10;;;22.30;52.90;;;;;;4751654;55;21057;-22
2021/11/11 12:58:51;;;;;;;146.18;107.03;;;22.30;52.80;;;;;;4758859;55;21121;-28
2021/11/11 13:04:17;;;;;;;149.32;109.97;;;22.30;52.80;;;;;;4737889;59;21476;-35
2021/11/11 13:09:39;;;;;;;147.45;111.03;;;22.20;52.60;;;;;;4753386;55;21540;-27
2021/11/11 13:15:43;;;;;;;144.82;106.22;;;22.20;52.50;;;;;;4737378;58;21531;-25
2021/11/11 13:20:48;;;;;;;150.55;109.15;;;22.20;52.60;;;;;;4803389;55;21484;-29
2021/11/11 15:15:23;;;;;;;132.77;99.75;;;22.40;53.70;;;;;;4788234;55;21110;-29
2021/11/11 16:32:46;;;;;;;142.32;104.68;;;22.20;53.40;;;;;;4776944;55;21102;-33
2021/11/11 16:37:48;;;;;;;143.68;103.30;;;22.20;53.40;;;;;;4759611;55;20986;-30
2021/11/11 16:42:49;;;;;;;141.40;103.53;;;22.10;53.40;;;;;;4749301;55;21578;-36
2021/11/11 16:47:50;;;;;;;143.73;104.80;;;22.10;53.40;;;;;;4764448;55;20998;-34
2021/11/11 16:52:52;;;;;;;141.70;104.55;;;22.10;53.40;;;;;;4780726;55;21017;-35
2021/11/11 16:57:53;;;;;;;139.32;102.68;;;22.10;53.40;;;;;;4739138;55;21067;-36
2021/11/11 17:02:54;;;;;;;137.80;103.07;;;22.00;53.40;;;;;;4738477;55;21026;-34
2021/11/11 17:07:56;;;;;;;137.15;101.75;;;22.00;53.40;;;;;;4738212;55;21042;-37
2021/11/11 17:12:57;;;;;;;137.88;101.35;;;22.00;53.40;;;;;;4763113;55;21070;-22
2021/11/11 17:17:59;;;;;;;140.30;101.72;;;22.00;53.40;;;;;;4743228;55;21076;-32
2021/11/11 17:23:03;;;;;;;140.77;105.18;;;22.00;53.30;;;;;;4802582;55;21452;-23
2021/11/11 17:33:38;;;;;;;135.35;101.38;;;21.90;53.20;;;;;;4753112;55;21576;-34
2021/11/11 17:38:40;;;;;;;141.85;103.55;;;21.90;53.20;;;;;;4755836;55;21093;-28
2021/11/11 17:43:45;;;;;;;137.25;99.45;;;21.90;53.10;;;;;;4759643;55;21022;-29
2021/11/11 17:48:50;;;;;;;141.15;103.28;;;21.90;53.30;;;;;;4763178;55;21441;-28
2021/11/11 17:53:56;;;;;;;143.35;103.95;;;21.90;53.10;;;;;;4738694;55;21504;-32
2021/11/11 17:58:58;;;;;;;144.50;101.38;;;21.90;53.00;;;;;;4770872;55;21146;-33
2021/11/11 18:04:00;;;;;;;145.75;105.37;;;21.90;53.00;;;;;;4737791;59;21492;-33
2021/11/11 18:09:06;;;;;;;151.10;104.53;;;21.90;53.00;;;;;;4757059;55;21026;-26
2021/11/11 18:14:10;;;;;;;143.32;104.53;;;21.90;52.90;;;;;;4774713;55;21567;-34
2021/11/11 18:19:11;;;;;;;150.45;106.12;;;21.80;52.80;;;;;;4763482;55;21519;-35
2021/11/11 18:24:13;;;;;;;150.10;103.62;;;21.80;52.80;;;;;;4773054;55;21065;-31
2021/11/11 18:29:32;;;;;;;145.85;105.63;;;21.80;52.80;;;;;;4757947;55;21465;-36
2021/11/11 18:34:38;;;;;;;151.02;108.12;;;21.80;52.80;;;;;;4739945;55;21573;-30
2021/11/11 18:39:40;;;;;;;153.30;109.97;;;21.80;52.80;;;;;;4775343;55;22157;-31
2021/11/11 18:44:46;;;;;;;153.62;107.78;;;21.80;52.70;;;;;;4757517;55;21148;-35
2021/11/11 18:49:50;;;;;;;151.60;106.95;;;21.80;52.80;;;;;;4741425;55;21531;-32
2021/11/11 18:54:52;;;;;;;142.95;105.60;;;21.80;52.70;;;;;;4754310;55;21480;-35
2021/11/11 18:59:56;;;;;;;152.98;110.63;;;21.80;52.70;;;;;;4767561;55;21006;-27
2021/11/11 19:05:07;;;;;;;146.07;106.32;;;21.80;52.70;;;;;;4756607;55;21006;-34
2021/11/11 19:10:29;;;;;;;146.60;106.20;;;21.80;52.70;;;;;;4745879;55;21563;-27
2021/11/11 19:15:31;;;;;;;145.62;105.47;;;21.80;52.60;;;;;;4739114;55;21094;-32
2021/11/11 19:20:32;;;;;;;148.07;103.90;;;21.80;52.60;;;;;;4738021;59;21524;-26
2021/11/11 19:25:33;;;;;;;146.98;104.05;;;21.80;52.60;;;;;;4771602;55;21002;-22
2021/11/11 19:30:34;;;;;;;147.82;105.15;;;21.80;52.70;;;;;;4738428;55;21038;-30
2021/11/11 19:35:42;;;;;;;146.18;104.93;;;21.80;52.60;;;;;;4755230;55;21615;-34
2021/11/11 19:40:59;;;;;;;148.62;105.82;;;21.80;52.60;;;;;;4738648;59;21544;-36
2021/11/11 19:57:04;;;;;;;149.98;106.82;;;21.80;52.60;;;;;;4737705;55;21077;-35
2021/11/11 20:07:42;;;;;;;142.45;102.80;;;21.80;52.60;;;;;;4737448;55;21025;-34
2021/11/11 20:13:03;;;;;;;144.93;104.57;;;21.80;52.60;;;;;;4754611;55;21523;-31
2021/11/11 20:18:19;;;;;;;148.13;104.80;;;21.80;52.50;;;;;;4762778;55;21599;-35
2021/11/11 20:29:54;;;;;;;141.43;101.22;;;21.70;52.50;;;;;;4738205;55;21211;-25
2021/11/11 20:35:05;;;;;;;142.90;102.10;;;21.80;52.50;;;;;;4747442;55;21560;-30
2021/11/11 20:59:07;;;;;;;146.30;101.90;;;21.70;52.40;;;;;;4786231;55;21085;-35
2021/11/11 21:04:08;;;;;;;144.07;99.95;;;21.70;52.50;;;;;;4758518;55;21484;-34
2021/11/11 21:09:33;;;;;;;146.45;102.05;;;21.70;52.40;;;;;;4766590;55;21053;-33
2021/11/11 21:14:46;;;;;;;136.85;98.20;;;21.70;52.40;;;;;;4743210;55;22744;-21
2021/11/11 21:19:56;;;;;;;140.57;99.28;;;21.80;52.40;;;;;;4768123;55;21569;-33
2021/11/11 21:24:58;;;;;;;136.60;98.93;;;21.70;52.30;;;;;;4738299;59;21544;-24
2021/11/11 21:30:01;;;;;;;135.32;96.60;;;21.70;52.30;;;;;;4770446;55;21328;-26
2021/11/11 21:41:41;;;;;;;137.48;94.95;;;21.70;52.30;;;;;;4759248;55;21468;-31
2021/11/11 21:46:42;;;;;;;132.35;94.30;;;21.70;52.30;;;;;;4753937;55;21527;-29
2021/11/11 21:51:43;;;;;;;139.70;95.85;;;21.70;52.30;;;;;;4751496;55;21101;-25
2021/11/11 21:56:58;;;;;;;130.87;93.40;;;21.70;52.30;;;;;;4781528;55;21525;-36
2021/11/11 22:02:30;;;;;;;130.48;93.22;;;21.70;52.30;;;;;;4745596;55;22445;-33
2021/11/11 22:21:19;;;;;;;129.30;90.70;;;21.70;52.80;;;;;;4737709;55;21119;-35
2021/11/11 22:38:16;;;;;;;125.57;88.57;;;21.70;52.10;;;;;;4739343;55;21057;-26
2021/11/11 22:43:17;;;;;;;118.57;83.78;;;21.70;52.10;;;;;;4761145;55;21582;-35
2021/11/11 22:48:18;;;;;;;123.62;85.78;;;21.70;52.10;;;;;;4737931;59;21492;-34
2021/11/11 22:53:36;;;;;;;116.10;82.07;;;21.70;52.10;;;;;;4745511;55;21013;-29
2021/11/11 22:59:31;;;;;;;117.50;83.90;;;21.70;52.10;;;;;;4746420;55;21564;-35
2021/11/11 23:04:44;;;;;;;118.40;83.07;;;21.70;52.00;;;;;;4762653;55;21592;-20
2021/11/11 23:10:44;;;;;;;118.75;84.80;;;21.70;52.10;;;;;;4767282;55;21564;-35
2021/11/11 23:24:14;;;;;;;111.37;79.53;;;21.70;52.00;;;;;;4762834;55;21130;-35
2021/11/11 23:34:35;;;;;;;114.50;79.62;;;21.60;51.90;;;;;;4737930;55;21089;-30
2021/11/11 23:39:36;;;;;;;109.45;78.68;;;21.70;51.90;;;;;;4787131;55;21479;-33
2021/11/11 23:44:38;;;;;;;110.10;78.30;;;21.60;51.90;;;;;;4766162;55;21480;-33
2021/11/11 23:49:50;;;;;;;110.50;76.80;;;21.70;51.90;;;;;;4737620;55;21081;-35
